Weather observations for the past three days for
Coeur d'Alene Airport - Pappy Boyington Field
Metric (Imperial)
Date Time (pdt) Wind (kph) Vis. (km) Weather Sky Cond. Temperature (ºC) Relative Humidity Wind Chill (°C) Heat Index (°C) Pressure Precipitation (cm)
Air Dwpt 6 hour altimeter (cm) sea level (mb) 1 hr 3 hr 6 hr
Max. Min.
07 11:56 W 13 16.09 A Few Clouds FEW042 18.9 7.8 49% 76.17 1016.2
07 10:56 S 13 16.09 Fair CLR 16.7 7.2 16.7 8.3 54% 76.2 1016.5
07 09:56 S 19 16.09 Fair CLR 15 6.7 58% 76.2 1016.7
07 08:56 SE 17 16.09 Fair CLR 13.9 6.1 60% 76.2 1016.6
07 07:56 S 13 16.09 Fair CLR 12.8 6.1 64% 76.17 1016.4
07 06:56 S 13 16.09 Fair CLR 11.7 6.1 69% 76.12 1015.8
07 05:56 S 15 16.09 Fair CLR 10.6 5.6 71% 76.1 1015.2
07 04:56 Calm 16.09 Fair CLR 10.6 5 17.2 10.6 69% 76.05 1014.5
07 03:56 Calm 16.09 Fair CLR 11.7 4.4 61% 76.02 1014.0
07 02:56 S 7 16.09 Fair CLR 12.2 4.4 59% 75.97 1013.2
07 01:56 S 9 16.09 Fair CLR 13.3 4.4 55% 75.92 1012.5
07 00:56 S 6 16.09 Fair CLR 15 5.6 54% 75.87 1012.0
06 23:56 S 13 16.09 Fair CLR 16.1 6.1 52% 75.82 1011.1
06 22:56 S 15 16.09 Fair CLR 17.8 8.3 23.3 16.1 54% 75.79 1010.8
06 21:56 SW 6 16.09 Fair CLR 18.3 8.3 52% 75.79 1011.1
06 20:56 SE 11 16.09 Fair CLR 20 8.9 49% 75.79 1011.1
06 19:56 S 15 16.09 Fair CLR 21.1 9.4 47% 75.79 1011.0
06 18:56 S 13 16.09 Fair CLR 22.2 7.8 40% 75.79 1011.3
06 17:56 SW 19 G 31 16.09 Fair CLR 22.8 7.2 37% 75.84 1011.9
06 16:56 SW 15 16.09 Fair CLR 23.3 8.3 25 18.9 38% 75.84 1012.0
06 15:56 SW 24 16.09 A Few Clouds FEW060 23.3 9.4 41% 75.9 1012.7
06 14:56 SW 20 16.09 Fair CLR 23.9 10 42% 25 75.92 1013.1
06 13:56 W 17 16.09 Fair CLR 23.9 9.4 40% 25 75.97 1013.5
06 12:56 Vrbl 7 16.09 Fair CLR 22.2 7.2 38% 76.02 1014.2
06 11:56 NW 13 16.09 Fair CLR 20.6 6.1 39% 76.07 1015.2
06 10:56 Vrbl 7 16.09 Fair CLR 19.4 3.9 19.4 7.8 36% 76.07 1015.2
06 09:56 Vrbl 9 16.09 Fair CLR 17.2 3.3 40% 76.12 1015.8
06 08:56 Vrbl 6 16.09 Fair CLR 14.4 2.2 44% 76.15 1016.2
06 07:56 NE 15 16.09 Fair CLR 11.7 2.8 55% 76.12 1016.1
06 06:56 NE 9 16.09 Fair CLR 10.6 1.1 52% 76.15 1016.1
06 05:56 E 9 16.09 Fair CLR 8.3 1.7 63% 7 76.12 1015.9
06 04:56 E 9 16.09 Fair CLR 8.3 3.9 13.3 6.1 74% 7 76.1 1015.6
06 03:56 E 6 16.09 Fair CLR 6.7 2.8 76% 76.1 1015.7
06 02:56 E 7 16.09 Fair CLR 7.2 3.3 77% 6 76.1 1015.6
06 01:56 Calm 16.09 Fair CLR 9.4 2.8 64% 76.07 1015.4
06 00:56 Vrbl 7 16.09 Fair CLR 9.4 3.3 66% 9 76.05 1015.1
05 23:56 NE 6 16.09 Fair CLR 9.4 3.9 69% 76.05 1014.8
05 22:56 E 7 16.09 Fair CLR 12.2 5 22.2 11.7 62% 76 1014.1
05 21:56 E 6 16.09 Fair CLR 13.9 5 55% 75.95 1013.6
05 20:56 E 7 16.09 Fair CLR 14.4 3.9 50% 75.92 1013.2
05 19:56 N 6 16.09 Fair CLR 18.3 2.2 34% 75.9 1012.7
05 18:56 NE 6 16.09 Fair CLR 21.1 0 25% 75.9 1012.7
05 17:56 E 17 16.09 Fair CLR 21.7 0.6 25% 75.9 1012.8
05 16:56 Vrbl 6 16.09 Fair CLR 21.7 -0.6 22.2 18.3 23% 75.95 1013.4
05 15:56 NE 15 16.09 Fair CLR 21.7 0 24% 75.97 1013.7
05 14:56 N 13 G 30 16.09 Fair CLR 21.7 0 24% 76.02 1014.1
05 13:56 N 19 16.09 Fair CLR 21.1 1.1 27% 76.05 1014.6
05 12:56 Vrbl 6 16.09 Fair CLR 20.6 0.6 26% 76.05 1014.6
05 11:56 NE 7 16.09 Fair CLR 20 1.1 28% 76.07 1014.8
05 10:56 N 13 16.09 Fair CLR 18.3 1.1 18.3 8.9 32% 76.07 1015.0
05 09:56 N 15 G 26 16.09 Fair CLR 17.2 1.1 34% 76.1 1015.3
05 08:56 N 19 16.09 Fair CLR 15.6 2.2 41% 76.1 1015.5
05 07:56 N 19 16.09 Fair CLR 13.3 2.2 47% 76.1 1015.4
05 06:56 N 17 16.09 Fair CLR 11.1 1.7 53% 76.07 1015.0
05 05:56 N 17 16.09 Fair CLR 8.9 1.7 61% 7 76.02 1014.3
05 04:56 N 17 16.09 Fair CLR 9.4 2.2 16.1 9.4 61% 7 75.97 1013.7
05 03:56 N 15 16.09 Fair CLR 10 2.2 59% 8 75.97 1013.4
05 02:56 N 17 16.09 Fair CLR 11.1 2.8 57% 75.95 1013.0
05 01:56 N 13 16.09 Fair CLR 11.1 3.3 59% 75.9 1012.4
05 00:56 N 13 16.09 Fair CLR 12.2 3.9 57% 75.87 1012.1
04 23:56 N 17 16.09 Fair CLR 13.3 3.9 53% 75.82 1011.4
04 22:56 N 9 16.09 Fair CLR 16.1 3.3 24.4 15 43% 75.79 1011.0
04 21:56 N 11 16.09 Fair CLR 15.6 3.9 46% 75.77 1010.6
04 20:56 N 9 16.09 Fair CLR 17.2 3.9 41% 75.72 1009.9
04 19:56 N 13 16.09 Fair CLR 19.4 3.3 35% 75.67 1009.3
04 18:56 N 22 16.09 Fair CLR 22.2 2.2 27% 75.64 1009.2
04 17:56 N 19 16.09 Fair CLR 23.3 1.7 24% 75.67 1009.4
04 16:56 NE 17 16.09 Fair CLR 24.4 2.2 24.4 20.6 23% 25 75.67 1009.5
04 15:56 N 19 16.09 Fair CLR 24.4 3.3 25% 25 75.69 1009.5
04 14:56 N 17 G 26 16.09 Fair CLR 23.9 3.3 26% 25 75.69 1009.6
04 13:56 N 19 16.09 Fair CLR 23.9 4.4 28% 25 75.72 1010.0
04 12:56 NE 19 16.09 Fair CLR 22.8 4.4 30% 75.72 1010.1
Date Time (pdt) Wind (kph) Vis. (km) Weather Sky Cond. Air Dwpt Max. Min. Relative Humidity Wind Chill (°C) Heat Index (°C) altimeter (cm) sea level (mb) 1 hr 3 hr 6 hr
6 hour
Temperature (ºC) Pressure Precipitation (cm)